sensor_id;sensor_type;location;lat;lon;timestamp;pressure;altitude;pressure_sealevel;temperature;humidity
59055;BME280;44845;51.444;7.460;2023-04-07T00:01:41;99528.41;;;7.63;82.13
59055;BME280;44845;51.444;7.460;2023-04-07T00:04:06;99524.94;;;7.64;81.95
59055;BME280;44845;51.444;7.460;2023-04-07T00:06:32;99532.75;;;7.62;82.07
59055;BME280;44845;51.444;7.460;2023-04-07T00:08:57;99529.28;;;7.63;82.07
59055;BME280;44845;51.444;7.460;2023-04-07T00:11:22;99525.81;;;7.66;82.03
59055;BME280;44845;51.444;7.460;2023-04-07T00:13:48;99523.19;;;7.55;82.51
59055;BME280;44845;51.444;7.460;2023-04-07T00:16:13;99527.53;;;7.65;82.19
59055;BME280;44845;51.444;7.460;2023-04-07T00:18:38;99525.81;;;7.66;82.17
59055;BME280;44845;51.444;7.460;2023-04-07T00:21:04;99520.56;;;7.68;82.44
59055;BME280;44845;51.444;7.460;2023-04-07T00:23:29;99526.66;;;7.68;82.21
59055;BME280;44845;51.444;7.460;2023-04-07T00:25:55;99523.19;;;7.66;82.23
59055;BME280;44845;51.444;7.460;2023-04-07T00:28:21;99525.78;;;7.64;82.32
59055;BME280;44845;51.444;7.460;2023-04-07T00:30:46;99517.97;;;7.66;82.46
59055;BME280;44845;51.444;7.460;2023-04-07T00:33:11;99513.63;;;7.68;82.38
59055;BME280;44845;51.444;7.460;2023-04-07T00:35:37;99520.59;;;7.69;82.17
59055;BME280;44845;51.444;7.460;2023-04-07T00:38:02;99517.97;;;7.69;82.41
59055;BME280;44845;51.444;7.460;2023-04-07T00:40:27;99517.97;;;7.63;82.43
59055;BME280;44845;51.444;7.460;2023-04-07T00:42:53;99523.19;;;7.71;82.31
59055;BME280;44845;51.444;7.460;2023-04-07T00:45:18;99512.75;;;7.69;82.35
59055;BME280;44845;51.444;7.460;2023-04-07T00:47:43;99511.00;;;7.71;82.48
59055;BME280;44845;51.444;7.460;2023-04-07T00:50:09;99511.00;;;7.68;82.46
59055;BME280;44845;51.444;7.460;2023-04-07T00:52:35;99506.66;;;7.65;82.47
59055;BME280;44845;51.444;7.460;2023-04-07T00:55:00;99504.94;;;7.69;82.50
59055;BME280;44845;51.444;7.460;2023-04-07T00:57:26;99500.56;;;7.70;82.37
59055;BME280;44845;51.444;7.460;2023-04-07T00:59:52;99505.78;;;7.71;82.30
59055;BME280;44845;51.444;7.460;2023-04-07T01:02:36;99498.81;;;7.70;82.52
59055;BME280;44845;51.444;7.460;2023-04-07T01:05:41;99492.72;;;7.73;82.50
59055;BME280;44845;51.444;7.460;2023-04-07T01:11:03;99487.47;;;7.74;82.49
59055;BME280;44845;51.444;7.460;2023-04-07T01:13:47;99497.06;;;7.75;82.46
59055;BME280;44845;51.444;7.460;2023-04-07T01:16:23;99493.59;;;7.76;82.44
59055;BME280;44845;51.444;7.460;2023-04-07T01:18:51;99497.06;;;7.72;82.45
59055;BME280;44845;51.444;7.460;2023-04-07T01:21:18;99488.34;;;7.80;82.19
59055;BME280;44845;51.444;7.460;2023-04-07T01:26:29;99487.47;;;7.74;82.44
59055;BME280;44845;51.444;7.460;2023-04-07T01:31:54;99490.13;;;7.76;82.43
59055;BME280;44845;51.444;7.460;2023-04-07T01:34:21;99488.34;;;7.80;82.68
59055;BME280;44845;51.444;7.460;2023-04-07T01:36:48;99483.16;;;7.76;82.58
59055;BME280;44845;51.444;7.460;2023-04-07T01:39:15;99485.75;;;7.80;82.58
59055;BME280;44845;51.444;7.460;2023-04-07T01:41:42;99487.50;;;7.81;82.54
59055;BME280;44845;51.444;7.460;2023-04-07T01:44:09;99488.38;;;7.81;82.61
59055;BME280;44845;51.444;7.460;2023-04-07T01:46:35;99487.47;;;7.82;82.39
59055;BME280;44845;51.444;7.460;2023-04-07T01:49:01;99485.75;;;7.86;82.47
59055;BME280;44845;51.444;7.460;2023-04-07T01:51:27;99492.72;;;7.84;82.63
59055;BME280;44845;51.444;7.460;2023-04-07T01:53:55;99480.50;;;7.84;82.53
59055;BME280;44845;51.444;7.460;2023-04-07T01:56:21;99485.75;;;7.83;82.57
59055;BME280;44845;51.444;7.460;2023-04-07T01:58:47;99487.47;;;7.82;82.67
59055;BME280;44845;51.444;7.460;2023-04-07T02:01:13;99483.13;;;7.86;82.53
59055;BME280;44845;51.444;7.460;2023-04-07T02:06:46;99477.91;;;7.86;82.66
59055;BME280;44845;51.444;7.460;2023-04-07T02:09:14;99485.75;;;7.86;82.70
59055;BME280;44845;51.444;7.460;2023-04-07T02:11:41;99480.53;;;7.86;82.66
59055;BME280;44845;51.444;7.460;2023-04-07T02:14:08;99477.91;;;7.86;82.30
59055;BME280;44845;51.444;7.460;2023-04-07T02:16:34;99484.88;;;7.84;82.58
59055;BME280;44845;51.444;7.460;2023-04-07T02:19:00;99481.38;;;7.85;82.51
59055;BME280;44845;51.444;7.460;2023-04-07T02:21:27;99483.13;;;7.86;82.82
59055;BME280;44845;51.444;7.460;2023-04-07T02:23:55;99484.84;;;7.90;82.59
59055;BME280;44845;51.444;7.460;2023-04-07T02:26:20;99481.38;;;7.89;82.57
59055;BME280;44845;51.444;7.460;2023-04-07T02:28:45;99477.00;;;7.92;82.43
59055;BME280;44845;51.444;7.460;2023-04-07T02:31:11;99473.53;;;7.93;82.65
59055;BME280;44845;51.444;7.460;2023-04-07T02:33:38;99476.13;;;7.89;82.56
59055;BME280;44845;51.444;7.460;2023-04-07T02:36:03;99473.53;;;7.91;82.60
59055;BME280;44845;51.444;7.460;2023-04-07T02:38:28;99471.78;;;7.92;82.57
59055;BME280;44845;51.444;7.460;2023-04-07T02:40:54;99482.25;;;7.93;82.56
59055;BME280;44845;51.444;7.460;2023-04-07T02:43:20;99482.22;;;7.92;82.73
59055;BME280;44845;51.444;7.460;2023-04-07T02:45:45;99481.38;;;7.91;82.72
59055;BME280;44845;51.444;7.460;2023-04-07T02:48:10;99479.63;;;7.90;82.85
59055;BME280;44845;51.444;7.460;2023-04-07T02:50:36;99481.38;;;7.93;82.68
59055;BME280;44845;51.444;7.460;2023-04-07T02:53:01;99475.25;;;7.89;82.88
59055;BME280;44845;51.444;7.460;2023-04-07T02:55:27;99477.88;;;7.89;82.81
59055;BME280;44845;51.444;7.460;2023-04-07T02:57:52;99483.97;;;7.93;82.90
59055;BME280;44845;51.444;7.460;2023-04-07T03:00:17;99475.28;;;7.94;82.66
59055;BME280;44845;51.444;7.460;2023-04-07T03:02:43;99481.34;;;7.94;82.78
59055;BME280;44845;51.444;7.460;2023-04-07T03:05:08;99479.59;;;7.96;82.83
59055;BME280;44845;51.444;7.460;2023-04-07T03:07:33;99470.91;;;7.94;82.83
59055;BME280;44845;51.444;7.460;2023-04-07T03:09:59;99478.72;;;7.94;82.85
59055;BME280;44845;51.444;7.460;2023-04-07T03:12:24;99479.63;;;7.93;82.90
59055;BME280;44845;51.444;7.460;2023-04-07T03:14:49;99482.22;;;7.95;82.86
59055;BME280;44845;51.444;7.460;2023-04-07T03:17:15;99476.13;;;7.94;82.85
59055;BME280;44845;51.444;7.460;2023-04-07T03:19:40;99475.25;;;7.95;82.82
59055;BME280;44845;51.444;7.460;2023-04-07T03:22:06;99477.88;;;7.95;82.79
59055;BME280;44845;51.444;7.460;2023-04-07T03:24:31;99474.38;;;7.95;82.74
59055;BME280;44845;51.444;7.460;2023-04-07T03:26:56;99470.03;;;7.95;82.82
59055;BME280;44845;51.444;7.460;2023-04-07T03:29:22;99473.50;;;7.94;82.90
59055;BME280;44845;51.444;7.460;2023-04-07T03:31:47;99481.38;;;7.93;82.98
59055;BME280;44845;51.444;7.460;2023-04-07T03:34:13;99476.13;;;7.94;83.05
59055;BME280;44845;51.444;7.460;2023-04-07T03:36:38;99476.13;;;7.97;82.76
59055;BME280;44845;51.444;7.460;2023-04-07T03:39:03;99472.66;;;7.95;82.79
59055;BME280;44845;51.444;7.460;2023-04-07T03:41:29;99463.94;;;7.96;82.97
59055;BME280;44845;51.444;7.460;2023-04-07T03:43:55;99478.72;;;7.97;82.91
59055;BME280;44845;51.444;7.460;2023-04-07T03:46:20;99472.66;;;7.98;82.87
59055;BME280;44845;51.444;7.460;2023-04-07T03:48:45;99477.88;;;7.95;82.91
59055;BME280;44845;51.444;7.460;2023-04-07T03:51:11;99479.59;;;7.98;82.85
59055;BME280;44845;51.444;7.460;2023-04-07T03:53:37;99480.47;;;8.00;82.61
59055;BME280;44845;51.444;7.460;2023-04-07T03:56:02;99477.88;;;7.98;83.06
59055;BME280;44845;51.444;7.460;2023-04-07T03:58:28;99483.97;;;7.97;82.76
59055;BME280;44845;51.444;7.460;2023-04-07T04:00:53;99484.84;;;7.98;82.82
59055;BME280;44845;51.444;7.460;2023-04-07T04:03:19;99489.19;;;7.97;83.08
59055;BME280;44845;51.444;7.460;2023-04-07T04:05:44;99481.34;;;8.00;82.92
59055;BME280;44845;51.444;7.460;2023-04-07T04:08:09;99482.22;;;8.03;82.77
59055;BME280;44845;51.444;7.460;2023-04-07T04:10:35;99489.19;;;7.96;82.89
59055;BME280;44845;51.444;7.460;2023-04-07T04:13:00;99484.84;;;7.98;82.90
59055;BME280;44845;51.444;7.460;2023-04-07T04:15:27;99483.97;;;7.97;83.08
59055;BME280;44845;51.444;7.460;2023-04-07T04:17:53;99489.16;;;8.02;82.94
59055;BME280;44845;51.444;7.460;2023-04-07T04:20:19;99494.38;;;8.02;82.88
59055;BME280;44845;51.444;7.460;2023-04-07T04:22:46;99483.09;;;7.98;82.91
59055;BME280;44845;51.444;7.460;2023-04-07T04:25:11;99488.28;;;8.02;83.02
59055;BME280;44845;51.444;7.460;2023-04-07T04:27:37;99490.91;;;8.02;83.01
59055;BME280;44845;51.444;7.460;2023-04-07T04:30:02;99497.00;;;8.04;82.92
59055;BME280;44845;51.444;7.460;2023-04-07T04:32:28;99488.31;;;8.03;82.93
59055;BME280;44845;51.444;7.460;2023-04-07T04:34:53;99490.03;;;8.03;82.91
59055;BME280;44845;51.444;7.460;2023-04-07T04:37:19;99497.00;;;8.00;82.74
59055;BME280;44845;51.444;7.460;2023-04-07T04:39:45;99501.34;;;8.02;83.10
59055;BME280;44845;51.444;7.460;2023-04-07T04:42:10;99500.50;;;8.01;83.07
59055;BME280;44845;51.444;7.460;2023-04-07T04:44:36;99506.56;;;8.05;82.67
59055;BME280;44845;51.444;7.460;2023-04-07T04:47:01;99507.44;;;8.07;83.24
59055;BME280;44845;51.444;7.460;2023-04-07T04:49:27;99510.94;;;8.06;83.15
59055;BME280;44845;51.444;7.460;2023-04-07T04:51:52;99510.94;;;8.06;83.08
59055;BME280;44845;51.444;7.460;2023-04-07T04:54:18;99505.72;;;8.06;83.12
59055;BME280;44845;51.444;7.460;2023-04-07T04:56:43;99506.56;;;8.08;83.31
59055;BME280;44845;51.444;7.460;2023-04-07T04:59:09;99501.34;;;8.05;83.29
59055;BME280;44845;51.444;7.460;2023-04-07T05:01:35;99513.53;;;8.06;83.38
59055;BME280;44845;51.444;7.460;2023-04-07T05:04:00;99508.31;;;8.10;83.26
59055;BME280;44845;51.444;7.460;2023-04-07T05:06:26;99514.41;;;8.08;83.27
59055;BME280;44845;51.444;7.460;2023-04-07T05:08:52;99520.47;;;8.11;83.43
59055;BME280;44845;51.444;7.460;2023-04-07T05:11:17;99520.44;;;8.16;83.65
59055;BME280;44845;51.444;7.460;2023-04-07T05:13:43;99517.84;;;8.16;83.73
59055;BME280;44845;51.444;7.460;2023-04-07T05:16:08;99524.81;;;8.20;83.74
59055;BME280;44845;51.444;7.460;2023-04-07T05:18:33;99526.56;;;8.18;83.74
59055;BME280;44845;51.444;7.460;2023-04-07T05:20:59;99523.97;;;8.18;84.00
59055;BME280;44845;51.444;7.460;2023-04-07T05:23:26;99524.81;;;8.17;84.18
59055;BME280;44845;51.444;7.460;2023-04-07T05:25:51;99529.16;;;8.20;84.21
59055;BME280;44845;51.444;7.460;2023-04-07T05:28:16;99530.06;;;8.08;84.28
59055;BME280;44845;51.444;7.460;2023-04-07T05:30:42;99540.56;;;7.98;84.94
59055;BME280;44845;51.444;7.460;2023-04-07T05:33:07;99538.78;;;8.13;84.48
59055;BME280;44845;51.444;7.460;2023-04-07T05:35:33;99540.50;;;8.14;84.32
59055;BME280;44845;51.444;7.460;2023-04-07T05:37:58;99541.34;;;8.19;84.16
59055;BME280;44845;51.444;7.460;2023-04-07T05:40:24;99550.06;;;8.20;84.06
59055;BME280;44845;51.444;7.460;2023-04-07T05:42:49;99544.81;;;8.25;84.13
59055;BME280;44845;51.444;7.460;2023-04-07T05:45:15;99546.56;;;8.21;83.92
59055;BME280;44845;51.444;7.460;2023-04-07T05:47:40;99547.44;;;8.25;83.99
59055;BME280;44845;51.444;7.460;2023-04-07T05:50:06;99547.44;;;8.25;83.82
59055;BME280;44845;51.444;7.460;2023-04-07T05:52:31;99549.19;;;8.26;83.84
59055;BME280;44845;51.444;7.460;2023-04-07T05:54:57;99550.06;;;8.25;83.90
59055;BME280;44845;51.444;7.460;2023-04-07T05:57:22;99562.22;;;8.24;84.05
59055;BME280;44845;51.444;7.460;2023-04-07T05:59:47;99552.66;;;8.25;83.90
59055;BME280;44845;51.444;7.460;2023-04-07T06:02:13;99556.19;;;8.05;84.45
59055;BME280;44845;51.444;7.460;2023-04-07T06:04:38;99560.53;;;8.10;84.45
59055;BME280;44845;51.444;7.460;2023-04-07T06:07:03;99565.81;;;7.88;85.05
59055;BME280;44845;51.444;7.460;2023-04-07T06:09:29;99564.91;;;7.94;85.10
59055;BME280;44845;51.444;7.460;2023-04-07T06:11:55;99565.78;;;7.98;84.87
59055;BME280;44845;51.444;7.460;2023-04-07T06:14:20;99568.41;;;8.06;84.34
59055;BME280;44845;51.444;7.460;2023-04-07T06:16:46;99567.50;;;8.07;84.35
59055;BME280;44845;51.444;7.460;2023-04-07T06:19:11;99572.72;;;8.10;84.39
59055;BME280;44845;51.444;7.460;2023-04-07T06:21:37;99576.22;;;8.07;84.16
59055;BME280;44845;51.444;7.460;2023-04-07T06:24:04;99585.78;;;8.02;84.68
59055;BME280;44845;51.444;7.460;2023-04-07T06:26:29;99587.53;;;8.08;84.40
59055;BME280;44845;51.444;7.460;2023-04-07T06:28:56;99589.25;;;8.09;84.23
59055;BME280;44845;51.444;7.460;2023-04-07T06:31:22;99586.66;;;8.07;84.38
59055;BME280;44845;51.444;7.460;2023-04-07T06:33:47;99582.28;;;8.14;84.33
59055;BME280;44845;51.444;7.460;2023-04-07T06:36:12;99585.81;;;8.04;84.63
59055;BME280;44845;51.444;7.460;2023-04-07T06:38:38;99581.44;;;8.15;84.37
59055;BME280;44845;51.444;7.460;2023-04-07T06:41:03;99592.75;;;8.16;84.10
59055;BME280;44845;51.444;7.460;2023-04-07T06:43:29;99593.63;;;8.13;84.05
59055;BME280;44845;51.444;7.460;2023-04-07T06:45:55;99591.88;;;8.18;83.85
59055;BME280;44845;51.444;7.460;2023-04-07T06:48:21;99595.34;;;8.20;83.99
59055;BME280;44845;51.444;7.460;2023-04-07T06:50:49;99602.31;;;8.23;83.83
59055;BME280;44845;51.444;7.460;2023-04-07T06:53:15;99603.16;;;8.23;83.67
59055;BME280;44845;51.444;7.460;2023-04-07T06:55:40;99597.94;;;8.25;83.93
59055;BME280;44845;51.444;7.460;2023-04-07T06:58:05;99608.41;;;8.22;83.95
59055;BME280;44845;51.444;7.460;2023-04-07T07:00:31;99599.69;;;8.25;83.70
59055;BME280;44845;51.444;7.460;2023-04-07T07:02:57;99599.69;;;8.25;83.66
59055;BME280;44845;51.444;7.460;2023-04-07T07:05:22;99609.28;;;8.19;83.85
59055;BME280;44845;51.444;7.460;2023-04-07T07:07:48;99610.16;;;8.17;83.81
59055;BME280;44845;51.444;7.460;2023-04-07T07:10:13;99610.16;;;8.14;83.92
59055;BME280;44845;51.444;7.460;2023-04-07T07:12:39;99615.34;;;8.21;83.89
59055;BME280;44845;51.444;7.460;2023-04-07T07:15:05;99618.84;;;8.23;83.78
59055;BME280;44845;51.444;7.460;2023-04-07T07:17:31;99618.84;;;8.17;84.10
59055;BME280;44845;51.444;7.460;2023-04-07T07:19:56;99611.00;;;8.19;83.96
59055;BME280;44845;51.444;7.460;2023-04-07T07:22:22;99618.00;;;8.18;84.15
59055;BME280;44845;51.444;7.460;2023-04-07T07:24:47;99613.63;;;8.20;83.88
59055;BME280;44845;51.444;7.460;2023-04-07T07:27:12;99625.81;;;8.21;84.17
59055;BME280;44845;51.444;7.460;2023-04-07T07:29:38;99625.84;;;8.12;83.86
59055;BME280;44845;51.444;7.460;2023-04-07T07:32:03;99631.91;;;8.25;83.85
59055;BME280;44845;51.444;7.460;2023-04-07T07:34:28;99635.41;;;8.26;83.58
59055;BME280;44845;51.444;7.460;2023-04-07T07:36:54;99640.59;;;8.21;84.05
59055;BME280;44845;51.444;7.460;2023-04-07T07:39:20;99637.13;;;8.22;83.37
59055;BME280;44845;51.444;7.460;2023-04-07T07:41:45;99635.41;;;8.13;83.52
59055;BME280;44845;51.444;7.460;2023-04-07T07:44:11;99650.19;;;8.23;83.36
59055;BME280;44845;51.444;7.460;2023-04-07T07:46:36;99644.97;;;8.23;83.36
59055;BME280;44845;51.444;7.460;2023-04-07T07:49:01;99650.19;;;8.30;83.46
59055;BME280;44845;51.444;7.460;2023-04-07T07:51:27;99657.16;;;8.37;83.30
59055;BME280;44845;51.444;7.460;2023-04-07T07:53:52;99646.72;;;8.28;83.49
59055;BME280;44845;51.444;7.460;2023-04-07T07:56:17;99651.09;;;8.18;83.48
59055;BME280;44845;51.444;7.460;2023-04-07T07:58:43;99658.91;;;8.10;83.52
59055;BME280;44845;51.444;7.460;2023-04-07T08:01:08;99663.28;;;8.17;83.51
59055;BME280;44845;51.444;7.460;2023-04-07T08:03:34;99664.13;;;8.26;83.67
59055;BME280;44845;51.444;7.460;2023-04-07T08:05:59;99664.97;;;8.31;83.60
59055;BME280;44845;51.444;7.460;2023-04-07T08:08:25;99665.88;;;8.27;83.30
59055;BME280;44845;51.444;7.460;2023-04-07T08:10:50;99671.97;;;8.29;83.60
59055;BME280;44845;51.444;7.460;2023-04-07T08:13:16;99676.28;;;8.49;83.66
59055;BME280;44845;51.444;7.460;2023-04-07T08:15:41;99671.91;;;8.57;83.40
59055;BME280;44845;51.444;7.460;2023-04-07T08:18:07;99682.38;;;8.52;83.26
59055;BME280;44845;51.444;7.460;2023-04-07T08:20:32;99678.91;;;8.52;82.71
59055;BME280;44845;51.444;7.460;2023-04-07T08:22:58;99690.22;;;8.54;83.26
59055;BME280;44845;51.444;7.460;2023-04-07T08:25:26;99688.50;;;8.50;83.19
59055;BME280;44845;51.444;7.460;2023-04-07T08:27:51;99688.47;;;8.56;83.20
59055;BME280;44845;51.444;7.460;2023-04-07T08:30:17;99685.00;;;8.63;83.44
59055;BME280;44845;51.444;7.460;2023-04-07T08:32:43;99685.84;;;8.69;83.34
59055;BME280;44845;51.444;7.460;2023-04-07T08:35:09;99686.75;;;8.67;83.47
59055;BME280;44845;51.444;7.460;2023-04-07T08:37:36;99683.25;;;8.72;83.41
59055;BME280;44845;51.444;7.460;2023-04-07T08:40:02;99686.72;;;8.74;83.32
59055;BME280;44845;51.444;7.460;2023-04-07T08:42:30;99691.09;;;8.69;82.44
59055;BME280;44845;51.444;7.460;2023-04-07T08:44:56;99689.34;;;8.66;82.25
59055;BME280;44845;51.444;7.460;2023-04-07T08:47:26;99696.34;;;8.59;82.40
59055;BME280;44845;51.444;7.460;2023-04-07T08:49:55;99692.84;;;8.59;82.98
59055;BME280;44845;51.444;7.460;2023-04-07T08:52:49;99697.19;;;8.64;82.74
59055;BME280;44845;51.444;7.460;2023-04-07T08:55:13;99704.16;;;8.56;82.95
59055;BME280;44845;51.444;7.460;2023-04-07T08:57:40;99707.66;;;8.58;82.86
59055;BME280;44845;51.444;7.460;2023-04-07T09:00:06;99707.66;;;8.55;82.79
59055;BME280;44845;51.444;7.460;2023-04-07T09:02:32;99709.38;;;8.53;82.77
59055;BME280;44845;51.444;7.460;2023-04-07T09:04:58;99712.88;;;8.63;83.38
59055;BME280;44845;51.444;7.460;2023-04-07T09:07:24;99709.41;;;8.64;83.34
59055;BME280;44845;51.444;7.460;2023-04-07T09:09:50;99715.50;;;8.67;82.99
59055;BME280;44845;51.444;7.460;2023-04-07T09:12:15;99719.88;;;8.62;83.55
59055;BME280;44845;51.444;7.460;2023-04-07T09:14:41;99719.84;;;8.69;83.43
59055;BME280;44845;51.444;7.460;2023-04-07T09:17:06;99721.59;;;8.71;83.27
59055;BME280;44845;51.444;7.460;2023-04-07T09:19:31;99724.19;;;8.76;83.49
59055;BME280;44845;51.444;7.460;2023-04-07T09:21:57;99725.06;;;8.69;82.90
59055;BME280;44845;51.444;7.460;2023-04-07T09:24:28;99721.56;;;8.68;82.76
59055;BME280;44845;51.444;7.460;2023-04-07T09:27:12;99725.94;;;8.74;83.19
59055;BME280;44845;51.444;7.460;2023-04-07T09:29:40;99725.97;;;8.67;82.59
59055;BME280;44845;51.444;7.460;2023-04-07T09:32:06;99732.06;;;8.60;82.73
59055;BME280;44845;51.444;7.460;2023-04-07T09:34:33;99730.31;;;8.47;82.86
59055;BME280;44845;51.444;7.460;2023-04-07T09:37:00;99725.06;;;8.56;82.99
59055;BME280;44845;51.444;7.460;2023-04-07T09:39:25;99730.28;;;8.65;83.50
59055;BME280;44845;51.444;7.460;2023-04-07T09:41:51;99723.34;;;8.67;83.55
59055;BME280;44845;51.444;7.460;2023-04-07T09:44:21;99730.31;;;8.75;83.24
59055;BME280;44845;51.444;7.460;2023-04-07T09:46:57;99723.34;;;8.67;82.83
59055;BME280;44845;51.444;7.460;2023-04-07T09:49:24;99725.06;;;8.69;82.58
59055;BME280;44845;51.444;7.460;2023-04-07T09:52:00;99731.19;;;8.67;83.03
59055;BME280;44845;51.444;7.460;2023-04-07T09:54:39;99728.56;;;8.77;83.34
59055;BME280;44845;51.444;7.460;2023-04-07T09:57:07;99737.25;;;8.82;83.66
59055;BME280;44845;51.444;7.460;2023-04-07T09:59:35;99741.59;;;8.86;83.26
59055;BME280;44845;51.444;7.460;2023-04-07T10:02:01;99741.59;;;8.88;82.83
59055;BME280;44845;51.444;7.460;2023-04-07T10:04:27;99744.25;;;8.77;82.72
59055;BME280;44845;51.444;7.460;2023-04-07T10:06:57;99742.50;;;8.68;82.41
59055;BME280;44845;51.444;7.460;2023-04-07T10:09:25;99744.25;;;8.77;82.59
59055;BME280;44845;51.444;7.460;2023-04-07T10:11:51;99744.22;;;8.78;82.71
59055;BME280;44845;51.444;7.460;2023-04-07T10:14:19;99741.59;;;8.80;82.56
59055;BME280;44845;51.444;7.460;2023-04-07T10:16:46;99746.84;;;8.85;82.81
59055;BME280;44845;51.444;7.460;2023-04-07T10:19:12;99748.56;;;8.87;82.31
59055;BME280;44845;51.444;7.460;2023-04-07T10:21:39;99750.31;;;8.87;81.78
59055;BME280;44845;51.444;7.460;2023-04-07T10:24:36;99759.03;;;8.83;82.31
59055;BME280;44845;51.444;7.460;2023-04-07T10:27:14;99759.94;;;8.67;82.22
59055;BME280;44845;51.444;7.460;2023-04-07T10:29:42;99756.44;;;8.75;82.27
59055;BME280;44845;51.444;7.460;2023-04-07T10:32:09;99758.19;;;8.68;81.87
59055;BME280;44845;51.444;7.460;2023-04-07T10:37:13;99758.19;;;8.63;82.65
59055;BME280;44845;51.444;7.460;2023-04-07T10:39:42;99765.16;;;8.52;82.88
59055;BME280;44845;51.444;7.460;2023-04-07T10:45:06;99763.41;;;8.57;82.99
59055;BME280;44845;51.444;7.460;2023-04-07T10:47:33;99769.50;;;8.51;82.76
59055;BME280;44845;51.444;7.460;2023-04-07T10:50:18;99772.09;;;8.56;82.69
59055;BME280;44845;51.444;7.460;2023-04-07T10:52:46;99773.88;;;8.57;83.37
59055;BME280;44845;51.444;7.460;2023-04-07T11:00:38;99781.75;;;8.65;82.66
59055;BME280;44845;51.444;7.460;2023-04-07T11:03:11;99775.63;;;8.69;83.02
59055;BME280;44845;51.444;7.460;2023-04-07T11:05:40;99782.59;;;8.67;83.03
59055;BME280;44845;51.444;7.460;2023-04-07T11:08:06;99780.84;;;8.63;82.30
59055;BME280;44845;51.444;7.460;2023-04-07T11:10:32;99785.19;;;8.69;82.73
59055;BME280;44845;51.444;7.460;2023-04-07T11:13:05;99793.00;;;8.53;83.05
59055;BME280;44845;51.444;7.460;2023-04-07T11:15:31;99782.59;;;8.69;83.08
59055;BME280;44845;51.444;7.460;2023-04-07T11:20:52;99790.41;;;8.86;82.75
59055;BME280;44845;51.444;7.460;2023-04-07T11:23:20;99794.75;;;8.85;81.78
59055;BME280;44845;51.444;7.460;2023-04-07T11:25:47;99793.06;;;8.72;81.36
59055;BME280;44845;51.444;7.460;2023-04-07T11:28:14;99798.28;;;8.84;81.98
59055;BME280;44845;51.444;7.460;2023-04-07T11:30:51;99794.75;;;8.88;82.67
59055;BME280;44845;51.444;7.460;2023-04-07T11:33:22;99791.28;;;8.86;82.35
59055;BME280;44845;51.444;7.460;2023-04-07T11:38:17;99800.88;;;8.92;82.37
59055;BME280;44845;51.444;7.460;2023-04-07T11:40:43;99804.38;;;8.86;83.06
59055;BME280;44845;51.444;7.460;2023-04-07T11:43:19;99800.00;;;8.79;82.59
59055;BME280;44845;51.444;7.460;2023-04-07T11:45:45;99806.13;;;8.84;82.73
59055;BME280;44845;51.444;7.460;2023-04-07T11:48:28;99809.59;;;8.77;82.38
59055;BME280;44845;51.444;7.460;2023-04-07T11:50:53;99814.84;;;8.82;82.49
59055;BME280;44845;51.444;7.460;2023-04-07T11:53:29;99814.81;;;8.55;82.14
59055;BME280;44845;51.444;7.460;2023-04-07T11:56:09;99815.66;;;8.51;83.45
59055;BME280;44845;51.444;7.460;2023-04-07T11:58:36;99816.56;;;8.58;83.29
59055;BME280;44845;51.444;7.460;2023-04-07T12:01:04;99824.44;;;8.59;82.77
59055;BME280;44845;51.444;7.460;2023-04-07T12:03:34;99821.78;;;8.78;83.10
59055;BME280;44845;51.444;7.460;2023-04-07T12:06:00;99823.53;;;8.92;82.60
59055;BME280;44845;51.444;7.460;2023-04-07T12:08:39;99823.53;;;8.81;81.38
59055;BME280;44845;51.444;7.460;2023-04-07T12:11:06;99827.00;;;8.90;82.69
59055;BME280;44845;51.444;7.460;2023-04-07T12:13:32;99829.63;;;8.86;82.57
59055;BME280;44845;51.444;7.460;2023-04-07T12:15:58;99834.00;;;8.85;82.71
59055;BME280;44845;51.444;7.460;2023-04-07T12:18:23;99834.91;;;8.75;82.20
59055;BME280;44845;51.444;7.460;2023-04-07T12:20:49;99834.88;;;8.69;82.49
59055;BME280;44845;51.444;7.460;2023-04-07T12:23:15;99837.50;;;8.80;83.01
59055;BME280;44845;51.444;7.460;2023-04-07T12:25:40;99834.00;;;8.81;82.31
59055;BME280;44845;51.444;7.460;2023-04-07T12:28:06;99841.84;;;8.73;83.00
59055;BME280;44845;51.444;7.460;2023-04-07T12:30:31;99845.34;;;8.81;83.11
59055;BME280;44845;51.444;7.460;2023-04-07T12:32:57;99844.44;;;8.77;83.52
59055;BME280;44845;51.444;7.460;2023-04-07T12:35:22;99846.19;;;8.71;82.71
59055;BME280;44845;51.444;7.460;2023-04-07T12:37:48;99847.97;;;8.76;83.19
59055;BME280;44845;51.444;7.460;2023-04-07T12:40:13;99843.59;;;8.58;83.59
59055;BME280;44845;51.444;7.460;2023-04-07T12:42:40;99851.47;;;8.67;83.48
59055;BME280;44845;51.444;7.460;2023-04-07T12:45:06;99850.56;;;8.83;83.40
59055;BME280;44845;51.444;7.460;2023-04-07T12:47:32;99852.31;;;8.92;82.38
59055;BME280;44845;51.444;7.460;2023-04-07T12:49:58;99859.25;;;8.93;82.99
59055;BME280;44845;51.444;7.460;2023-04-07T12:52:23;99850.53;;;9.03;83.46
59055;BME280;44845;51.444;7.460;2023-04-07T12:54:48;99848.78;;;9.08;83.00
59055;BME280;44845;51.444;7.460;2023-04-07T12:57:14;99856.66;;;9.07;82.68
59055;BME280;44845;51.444;7.460;2023-04-07T12:59:40;99855.78;;;9.01;82.06
59055;BME280;44845;51.444;7.460;2023-04-07T13:02:05;99861.00;;;8.90;82.16
59055;BME280;44845;51.444;7.460;2023-04-07T13:04:32;99858.41;;;8.80;82.66
59055;BME280;44845;51.444;7.460;2023-04-07T13:06:57;99863.63;;;8.81;82.79
59055;BME280;44845;51.444;7.460;2023-04-07T13:09:23;99863.59;;;8.53;82.85
59055;BME280;44845;51.444;7.460;2023-04-07T13:11:49;99864.50;;;8.55;83.74
59055;BME280;44845;51.444;7.460;2023-04-07T13:14:15;99868.00;;;8.62;83.99
59055;BME280;44845;51.444;7.460;2023-04-07T13:16:40;99865.38;;;8.62;84.09
59055;BME280;44845;51.444;7.460;2023-04-07T13:19:05;99868.88;;;8.64;84.31
59055;BME280;44845;51.444;7.460;2023-04-07T13:21:33;99864.53;;;8.64;83.88
59055;BME280;44845;51.444;7.460;2023-04-07T13:23:58;99870.59;;;8.52;84.68
59055;BME280;44845;51.444;7.460;2023-04-07T13:26:24;99873.25;;;8.70;84.34
59055;BME280;44845;51.444;7.460;2023-04-07T13:28:51;99876.72;;;8.78;84.08
59055;BME280;44845;51.444;7.460;2023-04-07T13:31:17;99877.59;;;8.89;83.61
59055;BME280;44845;51.444;7.460;2023-04-07T13:33:42;99874.97;;;8.86;82.83
59055;BME280;44845;51.444;7.460;2023-04-07T13:36:07;99874.97;;;8.86;82.55